АЭРОДРОМУУД

ICAO:
ZMCK
Нэр:
УЛААНБААТАР / Чингис Хаан
Ахц:
473849N 1064912E
271344 ZMUBYNYX
(A0758/22 NOTAMN
Q) ZMUB/QFIAU/IV/NBO/A /000/999/4738N10649E005
A) ZMCK B) 2211271400 C) 2212061600
E) ACFT DE-ICING NOT AVBL. EXC VIP AND STATE FLT.)
- 5 hours ago -
METAR
No records found.
TAF
TAF COR ZMCK 270445Z 2706/2812 33010MPS 6000 SN BLSN BKN030 BKN080 TXM16/2706Z TNM30/2723Z TEMPO 2706/2716 2000 BECMG 2718/2720 9999 NSW SCT033 SCT100 TEMPO 2720/2807 6000 SN BLSN SCT030 SCT080 BECMG 2809/2811 31007MPS=
- 13 hours ago -
TAF COR ZMCK 270445Z 2706/2812 33010MPS 6000 SN BLSN BKN030 BKN080 TXM16/2706Z TNM30/2723Z TEMPO 2706/2716 2000 BECMG 2718/2720 9999 NSW SCT033 SCT100 TEMPO 2720/2807 6000 SN BLSN SCT030 SCT080 BECMG 2809/2811 31007MPS=
- 13 hours ago -